Date,TemperatureHighF,TemperatureAvgF,TemperatureLowF,DewpointHighF,DewpointAvgF,DewpointLowF,HumidityHigh,HumidityAvg,HumidityLow,PressureMaxIn,PressureMinIn,WindSpeedMaxMPH,WindSpeedAvgMPH,GustSpeedMaxMPH,PrecipitationSumIn
2013-2-1,46.1,31.4,22.9,34.0,15.5,6.4,78,54,27,30.58,30.22,15,3,15,0.00
2013-2-2,36.8,28.5,20.6,31.0,24.1,16.9,93,84,63,30.51,30.25,4,0,4,0.07
2013-2-3,55.1,39.0,25.3,39.6,28.6,23.6,96,71,31,30.28,30.15,16,2,20,0.01
2013-2-4,46.7,35.4,25.8,34.8,28.5,23.5,92,77,50,30.28,30.08,5,0,5,0.00
2013-2-5,64.0,48.0,37.5,46.1,40.9,34.5,95,78,49,30.17,30.04,6,0,6,0.03
2013-2-6,67.1,46.9,31.9,41.3,35.7,30.6,96,70,28,30.32,30.17,5,0,5,0.00
2013-2-7,57.8,48.9,43.1,46.9,41.7,37.7,95,77,51,30.23,30.05,5,0,5,0.01
2013-2-8,53.2,45.3,36.9,48.1,39.3,29.0,97,80,55,30.40,30.02,16,3,16,0.06
2013-2-9,60.7,43.5,29.1,36.2,29.2,21.1,88,61,23,30.47,30.31,6,1,6,0.00
2013-2-10,56.9,49.3,41.5,51.8,41.7,29.3,96,78,36,30.33,30.08,12,1,12,0.59
2013-2-11,57.5,52.3,42.3,54.5,44.6,31.5,96,77,41,30.27,30.08,5,0,5,0.03
2013-2-12,53.5,45.7,35.8,41.4,35.9,29.5,92,72,41,30.29,29.92,8,1,8,0.10
2013-2-13,48.3,43.7,40.9,45.0,39.0,33.2,96,84,73,30.13,29.81,13,1,13,0.05
2013-2-14,58.0,43.8,31.6,40.6,34.7,29.0,92,72,46,30.22,30.11,9,1,9,0.00
2013-2-15,60.5,43.7,30.1,42.6,33.7,27.3,96,70,42,30.24,30.14,20,2,20,0.00
2013-2-16,41.1,33.6,22.9,27.6,19.8,11.8,78,58,31,30.33,30.17,20,3,20,0.00
2013-2-17,48.8,31.8,16.1,24.8,17.1,10.2,90,60,25,30.44,30.33,12,1,12,0.00
2013-2-18,62.3,44.6,23.5,39.4,26.9,20.5,90,55,30,30.43,30.07,12,2,12,0.05
2013-2-19,55.9,45.2,30.1,45.3,30.2,13.1,96,62,23,30.34,30.04,16,2,19,0.41
2013-2-20,42.8,33.8,23.8,23.4,19.5,15.3,87,58,35,30.40,30.30,5,1,5,0.00
2013-2-21,55.7,41.2,27.3,43.2,26.4,14.0,94,61,21,30.34,30.03,7,1,7,0.69
2013-2-22,51.1,47.9,45.8,47.1,44.9,43.3,96,90,80,30.19,30.08,4,0,4,0.27
2013-2-23,56.6,48.7,44.9,48.7,45.7,43.8,96,90,73,30.13,29.98,7,1,7,0.09
2013-2-24,62.6,49.3,35.9,35.0,30.9,25.9,80,52,28,30.15,30.10,5,0,5,0.01
2013-2-25,56.3,47.9,35.9,44.3,32.2,24.4,88,56,35,30.13,29.82,20,2,20,0.15
2013-2-26,49.9,46.2,40.2,45.5,40.8,34.1,92,82,60,29.88,29.61,14,2,14,0.45
2013-2-27,56.5,45.3,39.3,37.5,33.7,27.3,87,65,42,30.01,29.88,12,2,12,0.02
2013-2-28,41.3,38.6,36.9,31.7,27.9,24.5,74,65,58,30.17,29.98,12,1,12,0.00